sensor_id;sensor_type;location;lat;lon;timestamp;P1;P2;P0
78063;PMS5003;67429;51.596;-3.264;2023-03-17T00:01:37;5;4;
78063;PMS5003;67429;51.596;-3.264;2023-03-17T00:04:03;3;3;
78063;PMS5003;67429;51.596;-3.264;2023-03-17T00:06:29;3;3;
78063;PMS5003;67429;51.596;-3.264;2023-03-17T00:08:54;3;3;
78063;PMS5003;67429;51.596;-3.264;2023-03-17T00:11:20;2;2;
78063;PMS5003;67429;51.596;-3.264;2023-03-17T00:13:46;5;3;
78063;PMS5003;67429;51.596;-3.264;2023-03-17T00:16:12;2;2;
78063;PMS5003;67429;51.596;-3.264;2023-03-17T00:18:36;3;3;
78063;PMS5003;67429;51.596;-3.264;2023-03-17T00:21:03;3;2;
78063;PMS5003;67429;51.596;-3.264;2023-03-17T00:23:28;5;3;
78063;PMS5003;67429;51.596;-3.264;2023-03-17T00:25:53;5;4;
78063;PMS5003;67429;51.596;-3.264;2023-03-17T00:28:20;3;3;
78063;PMS5003;67429;51.596;-3.264;2023-03-17T00:30:44;3;3;
78063;PMS5003;67429;51.596;-3.264;2023-03-17T00:33:10;5;4;
78063;PMS5003;67429;51.596;-3.264;2023-03-17T00:35:36;4;4;
78063;PMS5003;67429;51.596;-3.264;2023-03-17T00:38:01;5;5;
78063;PMS5003;67429;51.596;-3.264;2023-03-17T00:40:27;3;3;
78063;PMS5003;67429;51.596;-3.264;2023-03-17T00:42:52;3;3;
78063;PMS5003;67429;51.596;-3.264;2023-03-17T00:45:18;3;3;
78063;PMS5003;67429;51.596;-3.264;2023-03-17T00:47:43;4;4;
78063;PMS5003;67429;51.596;-3.264;2023-03-17T00:50:10;6;4;
78063;PMS5003;67429;51.596;-3.264;2023-03-17T00:52:35;5;4;
78063;PMS5003;67429;51.596;-3.264;2023-03-17T00:55:00;4;4;
78063;PMS5003;67429;51.596;-3.264;2023-03-17T00:57:25;5;5;
78063;PMS5003;67429;51.596;-3.264;2023-03-17T00:59:51;4;4;
78063;PMS5003;67429;51.596;-3.264;2023-03-17T01:02:17;6;5;
78063;PMS5003;67429;51.596;-3.264;2023-03-17T01:04:43;5;5;
78063;PMS5003;67429;51.596;-3.264;2023-03-17T01:07:08;4;4;
78063;PMS5003;67429;51.596;-3.264;2023-03-17T01:09:33;6;5;
78063;PMS5003;67429;51.596;-3.264;2023-03-17T01:11:59;5;4;
78063;PMS5003;67429;51.596;-3.264;2023-03-17T01:14:25;5;4;
78063;PMS5003;67429;51.596;-3.264;2023-03-17T01:16:50;4;4;
78063;PMS5003;67429;51.596;-3.264;2023-03-17T01:19:16;6;5;
78063;PMS5003;67429;51.596;-3.264;2023-03-17T01:21:41;5;4;
78063;PMS5003;67429;51.596;-3.264;2023-03-17T01:24:07;5;5;
78063;PMS5003;67429;51.596;-3.264;2023-03-17T01:26:32;5;5;
78063;PMS5003;67429;51.596;-3.264;2023-03-17T01:28:58;5;5;
78063;PMS5003;67429;51.596;-3.264;2023-03-17T01:31:24;7;7;
78063;PMS5003;67429;51.596;-3.264;2023-03-17T01:33:49;7;6;
78063;PMS5003;67429;51.596;-3.264;2023-03-17T01:36:15;4;4;
78063;PMS5003;67429;51.596;-3.264;2023-03-17T01:38:41;6;5;
78063;PMS5003;67429;51.596;-3.264;2023-03-17T01:41:06;8;6;
78063;PMS5003;67429;51.596;-3.264;2023-03-17T01:43:32;5;5;
78063;PMS5003;67429;51.596;-3.264;2023-03-17T01:48:23;7;6;
78063;PMS5003;67429;51.596;-3.264;2023-03-17T01:50:48;6;5;
78063;PMS5003;67429;51.596;-3.264;2023-03-17T01:53:14;8;5;
78063;PMS5003;67429;51.596;-3.264;2023-03-17T01:55:39;7;6;
78063;PMS5003;67429;51.596;-3.264;2023-03-17T01:58:05;4;4;
78063;PMS5003;67429;51.596;-3.264;2023-03-17T02:00:30;6;6;
78063;PMS5003;67429;51.596;-3.264;2023-03-17T02:02:56;4;4;
78063;PMS5003;67429;51.596;-3.264;2023-03-17T02:05:23;5;4;
78063;PMS5003;67429;51.596;-3.264;2023-03-17T02:07:47;5;5;
78063;PMS5003;67429;51.596;-3.264;2023-03-17T02:10:13;6;6;
78063;PMS5003;67429;51.596;-3.264;2023-03-17T02:12:39;6;6;
78063;PMS5003;67429;51.596;-3.264;2023-03-17T02:15:04;4;4;
78063;PMS5003;67429;51.596;-3.264;2023-03-17T02:17:29;5;4;
78063;PMS5003;67429;51.596;-3.264;2023-03-17T02:19:55;4;4;
78063;PMS5003;67429;51.596;-3.264;2023-03-17T02:22:21;6;5;
78063;PMS5003;67429;51.596;-3.264;2023-03-17T02:24:47;9;8;
78063;PMS5003;67429;51.596;-3.264;2023-03-17T02:27:13;5;5;
78063;PMS5003;67429;51.596;-3.264;2023-03-17T02:29:38;6;5;
78063;PMS5003;67429;51.596;-3.264;2023-03-17T02:32:03;6;6;
78063;PMS5003;67429;51.596;-3.264;2023-03-17T02:34:28;6;6;
78063;PMS5003;67429;51.596;-3.264;2023-03-17T02:36:54;11;7;
78063;PMS5003;67429;51.596;-3.264;2023-03-17T02:39:19;5;4;
78063;PMS5003;67429;51.596;-3.264;2023-03-17T02:41:44;6;6;
78063;PMS5003;67429;51.596;-3.264;2023-03-17T02:44:10;6;6;
78063;PMS5003;67429;51.596;-3.264;2023-03-17T02:46:36;4;4;
78063;PMS5003;67429;51.596;-3.264;2023-03-17T02:49:02;4;4;
78063;PMS5003;67429;51.596;-3.264;2023-03-17T02:51:27;5;5;
78063;PMS5003;67429;51.596;-3.264;2023-03-17T02:53:53;4;4;
78063;PMS5003;67429;51.596;-3.264;2023-03-17T02:56:18;5;5;
78063;PMS5003;67429;51.596;-3.264;2023-03-17T02:58:44;4;4;
78063;PMS5003;67429;51.596;-3.264;2023-03-17T03:01:09;6;6;
78063;PMS5003;67429;51.596;-3.264;2023-03-17T03:03:35;4;4;
78063;PMS5003;67429;51.596;-3.264;2023-03-17T03:06:01;6;4;
78063;PMS5003;67429;51.596;-3.264;2023-03-17T03:08:26;6;6;
78063;PMS5003;67429;51.596;-3.264;2023-03-17T03:10:52;5;5;
78063;PMS5003;67429;51.596;-3.264;2023-03-17T03:13:17;5;5;
78063;PMS5003;67429;51.596;-3.264;2023-03-17T03:15:43;4;4;
78063;PMS5003;67429;51.596;-3.264;2023-03-17T03:18:09;5;5;
78063;PMS5003;67429;51.596;-3.264;2023-03-17T03:20:34;5;5;
78063;PMS5003;67429;51.596;-3.264;2023-03-17T03:22:59;3;3;
78063;PMS5003;67429;51.596;-3.264;2023-03-17T03:25:25;7;7;
78063;PMS5003;67429;51.596;-3.264;2023-03-17T03:27:51;7;5;
78063;PMS5003;67429;51.596;-3.264;2023-03-17T03:30:16;4;4;
78063;PMS5003;67429;51.596;-3.264;2023-03-17T03:32:42;6;6;
78063;PMS5003;67429;51.596;-3.264;2023-03-17T03:35:08;4;4;
78063;PMS5003;67429;51.596;-3.264;2023-03-17T03:37:33;5;5;
78063;PMS5003;67429;51.596;-3.264;2023-03-17T03:39:58;4;4;
78063;PMS5003;67429;51.596;-3.264;2023-03-17T03:42:25;6;5;
78063;PMS5003;67429;51.596;-3.264;2023-03-17T03:44:50;6;6;
78063;PMS5003;67429;51.596;-3.264;2023-03-17T03:47:15;5;5;
78063;PMS5003;67429;51.596;-3.264;2023-03-17T03:49:40;5;5;
78063;PMS5003;67429;51.596;-3.264;2023-03-17T03:52:06;4;4;
78063;PMS5003;67429;51.596;-3.264;2023-03-17T03:54:31;9;9;
78063;PMS5003;67429;51.596;-3.264;2023-03-17T03:56:57;7;5;
78063;PMS5003;67429;51.596;-3.264;2023-03-17T03:59:23;6;4;
78063;PMS5003;67429;51.596;-3.264;2023-03-17T04:01:48;6;6;
78063;PMS5003;67429;51.596;-3.264;2023-03-17T04:04:13;6;4;
78063;PMS5003;67429;51.596;-3.264;2023-03-17T04:06:39;6;6;
78063;PMS5003;67429;51.596;-3.264;2023-03-17T04:09:04;4;4;
78063;PMS5003;67429;51.596;-3.264;2023-03-17T04:11:30;6;5;
78063;PMS5003;67429;51.596;-3.264;2023-03-17T04:13:56;9;9;
78063;PMS5003;67429;51.596;-3.264;2023-03-17T04:16:22;5;4;
78063;PMS5003;67429;51.596;-3.264;2023-03-17T04:18:47;7;6;
78063;PMS5003;67429;51.596;-3.264;2023-03-17T04:21:13;6;5;
78063;PMS5003;67429;51.596;-3.264;2023-03-17T04:23:39;5;4;
78063;PMS5003;67429;51.596;-3.264;2023-03-17T04:26:04;5;5;
78063;PMS5003;67429;51.596;-3.264;2023-03-17T04:28:30;8;8;
78063;PMS5003;67429;51.596;-3.264;2023-03-17T04:30:55;7;6;
78063;PMS5003;67429;51.596;-3.264;2023-03-17T04:33:21;6;6;
78063;PMS5003;67429;51.596;-3.264;2023-03-17T04:35:48;7;6;
78063;PMS5003;67429;51.596;-3.264;2023-03-17T04:38:12;5;5;
78063;PMS5003;67429;51.596;-3.264;2023-03-17T04:40:38;3;3;
78063;PMS5003;67429;51.596;-3.264;2023-03-17T04:43:04;6;5;
78063;PMS5003;67429;51.596;-3.264;2023-03-17T04:45:29;5;5;
78063;PMS5003;67429;51.596;-3.264;2023-03-17T04:47:55;5;5;
78063;PMS5003;67429;51.596;-3.264;2023-03-17T04:50:21;5;5;
78063;PMS5003;67429;51.596;-3.264;2023-03-17T04:52:46;6;5;
78063;PMS5003;67429;51.596;-3.264;2023-03-17T04:55:12;5;4;
78063;PMS5003;67429;51.596;-3.264;2023-03-17T04:57:37;11;8;
78063;PMS5003;67429;51.596;-3.264;2023-03-17T05:00:03;5;5;
78063;PMS5003;67429;51.596;-3.264;2023-03-17T05:02:28;5;5;
78063;PMS5003;67429;51.596;-3.264;2023-03-17T05:04:54;6;5;
78063;PMS5003;67429;51.596;-3.264;2023-03-17T05:07:20;6;6;
78063;PMS5003;67429;51.596;-3.264;2023-03-17T05:09:46;5;5;
78063;PMS5003;67429;51.596;-3.264;2023-03-17T05:12:11;7;6;
78063;PMS5003;67429;51.596;-3.264;2023-03-17T05:14:37;5;5;
78063;PMS5003;67429;51.596;-3.264;2023-03-17T05:17:02;5;4;
78063;PMS5003;67429;51.596;-3.264;2023-03-17T05:19:27;6;6;
78063;PMS5003;67429;51.596;-3.264;2023-03-17T05:21:53;6;6;
78063;PMS5003;67429;51.596;-3.264;2023-03-17T05:24:19;7;6;
78063;PMS5003;67429;51.596;-3.264;2023-03-17T05:26:44;9;7;
78063;PMS5003;67429;51.596;-3.264;2023-03-17T05:29:10;5;5;
78063;PMS5003;67429;51.596;-3.264;2023-03-17T05:31:35;12;9;
78063;PMS5003;67429;51.596;-3.264;2023-03-17T05:34:01;11;10;
78063;PMS5003;67429;51.596;-3.264;2023-03-17T05:36:26;10;9;
78063;PMS5003;67429;51.596;-3.264;2023-03-17T05:38:52;12;11;
78063;PMS5003;67429;51.596;-3.264;2023-03-17T05:41:18;11;10;
78063;PMS5003;67429;51.596;-3.264;2023-03-17T05:43:43;10;8;
78063;PMS5003;67429;51.596;-3.264;2023-03-17T05:46:08;10;9;
78063;PMS5003;67429;51.596;-3.264;2023-03-17T05:48:33;11;10;
78063;PMS5003;67429;51.596;-3.264;2023-03-17T05:50:59;7;7;
78063;PMS5003;67429;51.596;-3.264;2023-03-17T05:53:24;11;11;
78063;PMS5003;67429;51.596;-3.264;2023-03-17T05:55:50;14;12;
78063;PMS5003;67429;51.596;-3.264;2023-03-17T05:58:16;7;7;
78063;PMS5003;67429;51.596;-3.264;2023-03-17T06:00:41;6;6;
78063;PMS5003;67429;51.596;-3.264;2023-03-17T06:03:07;10;10;
78063;PMS5003;67429;51.596;-3.264;2023-03-17T06:05:33;7;7;
78063;PMS5003;67429;51.596;-3.264;2023-03-17T06:07:58;9;7;
78063;PMS5003;67429;51.596;-3.264;2023-03-17T06:10:23;9;9;
78063;PMS5003;67429;51.596;-3.264;2023-03-17T06:12:49;14;11;
78063;PMS5003;67429;51.596;-3.264;2023-03-17T06:15:15;12;10;
78063;PMS5003;67429;51.596;-3.264;2023-03-17T06:17:40;10;10;
78063;PMS5003;67429;51.596;-3.264;2023-03-17T06:20:06;7;7;
78063;PMS5003;67429;51.596;-3.264;2023-03-17T06:22:32;10;10;
78063;PMS5003;67429;51.596;-3.264;2023-03-17T06:24:57;13;13;
78063;PMS5003;67429;51.596;-3.264;2023-03-17T06:27:23;12;11;
78063;PMS5003;67429;51.596;-3.264;2023-03-17T06:29:48;11;10;
78063;PMS5003;67429;51.596;-3.264;2023-03-17T06:32:14;8;8;
78063;PMS5003;67429;51.596;-3.264;2023-03-17T06:34:39;13;12;
78063;PMS5003;67429;51.596;-3.264;2023-03-17T06:37:04;11;8;
78063;PMS5003;67429;51.596;-3.264;2023-03-17T06:39:30;8;8;
78063;PMS5003;67429;51.596;-3.264;2023-03-17T06:41:55;7;6;
78063;PMS5003;67429;51.596;-3.264;2023-03-17T06:44:26;11;10;
78063;PMS5003;67429;51.596;-3.264;2023-03-17T06:46:47;13;12;
78063;PMS5003;67429;51.596;-3.264;2023-03-17T06:49:12;14;14;
78063;PMS5003;67429;51.596;-3.264;2023-03-17T06:51:37;12;12;
78063;PMS5003;67429;51.596;-3.264;2023-03-17T06:54:03;12;7;
78063;PMS5003;67429;51.596;-3.264;2023-03-17T06:56:28;11;10;
78063;PMS5003;67429;51.596;-3.264;2023-03-17T06:58:54;12;11;
78063;PMS5003;67429;51.596;-3.264;2023-03-17T07:01:20;8;8;
78063;PMS5003;67429;51.596;-3.264;2023-03-17T07:03:46;7;7;
78063;PMS5003;67429;51.596;-3.264;2023-03-17T07:06:11;9;8;
78063;PMS5003;67429;51.596;-3.264;2023-03-17T07:08:38;7;7;
78063;PMS5003;67429;51.596;-3.264;2023-03-17T07:11:02;8;7;
78063;PMS5003;67429;51.596;-3.264;2023-03-17T07:13:28;12;11;
78063;PMS5003;67429;51.596;-3.264;2023-03-17T07:15:53;11;10;
78063;PMS5003;67429;51.596;-3.264;2023-03-17T07:18:19;7;6;
78063;PMS5003;67429;51.596;-3.264;2023-03-17T07:20:45;8;8;
78063;PMS5003;67429;51.596;-3.264;2023-03-17T07:23:11;7;6;
78063;PMS5003;67429;51.596;-3.264;2023-03-17T07:25:36;10;10;
78063;PMS5003;67429;51.596;-3.264;2023-03-17T07:28:01;8;8;
78063;PMS5003;67429;51.596;-3.264;2023-03-17T07:30:27;10;8;
78063;PMS5003;67429;51.596;-3.264;2023-03-17T07:32:52;8;7;
78063;PMS5003;67429;51.596;-3.264;2023-03-17T07:35:18;10;10;
78063;PMS5003;67429;51.596;-3.264;2023-03-17T07:37:44;8;8;
78063;PMS5003;67429;51.596;-3.264;2023-03-17T07:40:10;11;11;
78063;PMS5003;67429;51.596;-3.264;2023-03-17T07:42:35;11;11;
78063;PMS5003;67429;51.596;-3.264;2023-03-17T07:45:01;12;11;
78063;PMS5003;67429;51.596;-3.264;2023-03-17T07:47:26;12;11;
78063;PMS5003;67429;51.596;-3.264;2023-03-17T07:49:52;12;11;
78063;PMS5003;67429;51.596;-3.264;2023-03-17T07:52:17;11;10;
78063;PMS5003;67429;51.596;-3.264;2023-03-17T07:54:43;10;9;
78063;PMS5003;67429;51.596;-3.264;2023-03-17T07:57:09;10;10;
78063;PMS5003;67429;51.596;-3.264;2023-03-17T07:59:34;10;9;
78063;PMS5003;67429;51.596;-3.264;2023-03-17T08:02:00;10;10;
78063;PMS5003;67429;51.596;-3.264;2023-03-17T08:04:25;11;9;
78063;PMS5003;67429;51.596;-3.264;2023-03-17T08:06:51;10;10;
78063;PMS5003;67429;51.596;-3.264;2023-03-17T08:09:16;10;8;
78063;PMS5003;67429;51.596;-3.264;2023-03-17T08:11:41;10;10;
78063;PMS5003;67429;51.596;-3.264;2023-03-17T08:14:07;14;13;
78063;PMS5003;67429;51.596;-3.264;2023-03-17T08:16:32;10;10;
78063;PMS5003;67429;51.596;-3.264;2023-03-17T08:18:58;13;10;
78063;PMS5003;67429;51.596;-3.264;2023-03-17T08:21:23;15;15;
78063;PMS5003;67429;51.596;-3.264;2023-03-17T08:23:49;12;12;
78063;PMS5003;67429;51.596;-3.264;2023-03-17T08:26:14;14;12;
78063;PMS5003;67429;51.596;-3.264;2023-03-17T08:28:40;14;12;
78063;PMS5003;67429;51.596;-3.264;2023-03-17T08:31:06;11;11;
78063;PMS5003;67429;51.596;-3.264;2023-03-17T08:33:31;14;13;
78063;PMS5003;67429;51.596;-3.264;2023-03-17T08:35:55;15;13;
78063;PMS5003;67429;51.596;-3.264;2023-03-17T08:38:21;17;15;
78063;PMS5003;67429;51.596;-3.264;2023-03-17T08:40:47;13;10;
78063;PMS5003;67429;51.596;-3.264;2023-03-17T08:43:12;10;9;
78063;PMS5003;67429;51.596;-3.264;2023-03-17T08:45:38;13;10;
78063;PMS5003;67429;51.596;-3.264;2023-03-17T08:48:03;16;14;
78063;PMS5003;67429;51.596;-3.264;2023-03-17T08:50:29;13;11;
78063;PMS5003;67429;51.596;-3.264;2023-03-17T08:52:53;10;10;
78063;PMS5003;67429;51.596;-3.264;2023-03-17T08:55:19;10;9;
78063;PMS5003;67429;51.596;-3.264;2023-03-17T08:57:45;13;13;
78063;PMS5003;67429;51.596;-3.264;2023-03-17T09:00:10;18;15;
78063;PMS5003;67429;51.596;-3.264;2023-03-17T09:02:35;16;16;
78063;PMS5003;67429;51.596;-3.264;2023-03-17T09:05:00;15;15;
78063;PMS5003;67429;51.596;-3.264;2023-03-17T09:07:26;15;15;
78063;PMS5003;67429;51.596;-3.264;2023-03-17T09:09:52;13;12;
78063;PMS5003;67429;51.596;-3.264;2023-03-17T09:12:18;11;11;
78063;PMS5003;67429;51.596;-3.264;2023-03-17T09:14:43;14;14;
78063;PMS5003;67429;51.596;-3.264;2023-03-17T09:17:09;15;15;
78063;PMS5003;67429;51.596;-3.264;2023-03-17T09:19:33;15;14;
78063;PMS5003;67429;51.596;-3.264;2023-03-17T09:21:59;15;14;
78063;PMS5003;67429;51.596;-3.264;2023-03-17T09:24:24;18;17;
78063;PMS5003;67429;51.596;-3.264;2023-03-17T09:26:50;17;15;
78063;PMS5003;67429;51.596;-3.264;2023-03-17T09:29:16;19;19;
78063;PMS5003;67429;51.596;-3.264;2023-03-17T09:31:40;18;17;
78063;PMS5003;67429;51.596;-3.264;2023-03-17T09:34:06;18;16;
78063;PMS5003;67429;51.596;-3.264;2023-03-17T09:36:31;15;15;
78063;PMS5003;67429;51.596;-3.264;2023-03-17T09:38:56;22;19;
78063;PMS5003;67429;51.596;-3.264;2023-03-17T09:41:28;16;14;
78063;PMS5003;67429;51.596;-3.264;2023-03-17T09:43:48;15;14;
78063;PMS5003;67429;51.596;-3.264;2023-03-17T09:46:19;17;14;
78063;PMS5003;67429;51.596;-3.264;2023-03-17T09:48:40;20;19;
78063;PMS5003;67429;51.596;-3.264;2023-03-17T09:51:03;11;10;
78063;PMS5003;67429;51.596;-3.264;2023-03-17T09:53:29;12;12;
78063;PMS5003;67429;51.596;-3.264;2023-03-17T09:55:54;10;10;
78063;PMS5003;67429;51.596;-3.264;2023-03-17T09:58:21;11;10;
78063;PMS5003;67429;51.596;-3.264;2023-03-17T10:00:45;14;11;
78063;PMS5003;67429;51.596;-3.264;2023-03-17T10:03:11;10;9;
78063;PMS5003;67429;51.596;-3.264;2023-03-17T10:05:36;8;8;
78063;PMS5003;67429;51.596;-3.264;2023-03-17T10:08:04;10;8;
78063;PMS5003;67429;51.596;-3.264;2023-03-17T10:10:28;10;10;
78063;PMS5003;67429;51.596;-3.264;2023-03-17T10:12:55;9;8;
78063;PMS5003;67429;51.596;-3.264;2023-03-17T10:15:20;6;6;
78063;PMS5003;67429;51.596;-3.264;2023-03-17T10:17:44;11;10;
78063;PMS5003;67429;51.596;-3.264;2023-03-17T10:20:11;7;7;
78063;PMS5003;67429;51.596;-3.264;2023-03-17T10:22:36;8;7;
78063;PMS5003;67429;51.596;-3.264;2023-03-17T10:25:03;7;6;
78063;PMS5003;67429;51.596;-3.264;2023-03-17T10:27:27;6;6;
78063;PMS5003;67429;51.596;-3.264;2023-03-17T10:29:52;6;6;
78063;PMS5003;67429;51.596;-3.264;2023-03-17T10:32:18;9;7;
78063;PMS5003;67429;51.596;-3.264;2023-03-17T10:34:43;6;5;
78063;PMS5003;67429;51.596;-3.264;2023-03-17T10:37:11;5;5;
78063;PMS5003;67429;51.596;-3.264;2023-03-17T10:44:28;7;6;
78063;PMS5003;67429;51.596;-3.264;2023-03-17T10:46:52;7;7;
78063;PMS5003;67429;51.596;-3.264;2023-03-17T10:49:17;5;5;
78063;PMS5003;67429;51.596;-3.264;2023-03-17T10:51:44;9;7;
78063;PMS5003;67429;51.596;-3.264;2023-03-17T10:54:09;5;5;
78063;PMS5003;67429;51.596;-3.264;2023-03-17T10:59:03;5;5;
78063;PMS5003;67429;51.596;-3.264;2023-03-17T11:01:33;7;6;
78063;PMS5003;67429;51.596;-3.264;2023-03-17T11:03:50;5;4;
78063;PMS5003;67429;51.596;-3.264;2023-03-17T11:06:17;5;5;
78063;PMS5003;67429;51.596;-3.264;2023-03-17T11:08:44;5;4;
78063;PMS5003;67429;51.596;-3.264;2023-03-17T11:11:07;7;5;
78063;PMS5003;67429;51.596;-3.264;2023-03-17T11:13:32;5;4;
78063;PMS5003;67429;51.596;-3.264;2023-03-17T11:16:02;5;5;
78063;PMS5003;67429;51.596;-3.264;2023-03-17T11:18:24;5;4;
78063;PMS5003;67429;51.596;-3.264;2023-03-17T11:20:49;7;6;
78063;PMS5003;67429;51.596;-3.264;2023-03-17T11:23:17;5;4;
78063;PMS5003;67429;51.596;-3.264;2023-03-17T11:25:41;5;5;
78063;PMS5003;67429;51.596;-3.264;2023-03-17T11:28:10;4;4;
78063;PMS5003;67429;51.596;-3.264;2023-03-17T11:30:33;3;3;
78063;PMS5003;67429;51.596;-3.264;2023-03-17T11:32:58;2;2;
78063;PMS5003;67429;51.596;-3.264;2023-03-17T11:35:28;4;3;
78063;PMS5003;67429;51.596;-3.264;2023-03-17T11:40:14;4;4;
78063;PMS5003;67429;51.596;-3.264;2023-03-17T11:42:41;4;4;
78063;PMS5003;67429;51.596;-3.264;2023-03-17T11:45:08;4;4;
78063;PMS5003;67429;51.596;-3.264;2023-03-17T11:47:37;4;3;
78063;PMS5003;67429;51.596;-3.264;2023-03-17T11:49:57;4;4;
78063;PMS5003;67429;51.596;-3.264;2023-03-17T11:52:22;3;2;
78063;PMS5003;67429;51.596;-3.264;2023-03-17T11:54:48;3;3;
78063;PMS5003;67429;51.596;-3.264;2023-03-17T11:57:13;5;5;
78063;PMS5003;67429;51.596;-3.264;2023-03-17T11:59:38;4;4;
78063;PMS5003;67429;51.596;-3.264;2023-03-17T12:02:04;5;4;
78063;PMS5003;67429;51.596;-3.264;2023-03-17T12:04:30;8;6;
78063;PMS5003;67429;51.596;-3.264;2023-03-17T12:06:56;6;5;
78063;PMS5003;67429;51.596;-3.264;2023-03-17T12:09:22;5;5;
78063;PMS5003;67429;51.596;-3.264;2023-03-17T12:11:44;5;4;
78063;PMS5003;67429;51.596;-3.264;2023-03-17T12:14:15;3;3;
78063;PMS5003;67429;51.596;-3.264;2023-03-17T12:16:37;6;6;
78063;PMS5003;67429;51.596;-3.264;2023-03-17T12:19:04;4;4;
78063;PMS5003;67429;51.596;-3.264;2023-03-17T12:21:27;4;4;
78063;PMS5003;67429;51.596;-3.264;2023-03-17T12:23:53;2;2;
78063;PMS5003;67429;51.596;-3.264;2023-03-17T12:26:18;4;3;
78063;PMS5003;67429;51.596;-3.264;2023-03-17T12:28:45;4;4;
78063;PMS5003;67429;51.596;-3.264;2023-03-17T12:31:11;5;4;
78063;PMS5003;67429;51.596;-3.264;2023-03-17T12:33:37;3;3;
78063;PMS5003;67429;51.596;-3.264;2023-03-17T12:35:59;4;4;
78063;PMS5003;67429;51.596;-3.264;2023-03-17T12:38:26;4;3;
78063;PMS5003;67429;51.596;-3.264;2023-03-17T12:43:21;3;3;
78063;PMS5003;67429;51.596;-3.264;2023-03-17T12:45:46;3;3;
78063;PMS5003;67429;51.596;-3.264;2023-03-17T12:48:13;4;4;
78063;PMS5003;67429;51.596;-3.264;2023-03-17T12:50:37;3;3;
78063;PMS5003;67429;51.596;-3.264;2023-03-17T12:53:07;7;5;
78063;PMS5003;67429;51.596;-3.264;2023-03-17T12:55:25;3;3;
78063;PMS5003;67429;51.596;-3.264;2023-03-17T13:00:18;3;2;
78063;PMS5003;67429;51.596;-3.264;2023-03-17T13:02:40;4;4;
78063;PMS5003;67429;51.596;-3.264;2023-03-17T13:05:08;4;3;
78063;PMS5003;67429;51.596;-3.264;2023-03-17T13:07:31;5;4;
78063;PMS5003;67429;51.596;-3.264;2023-03-17T13:14:47;4;4;
78063;PMS5003;67429;51.596;-3.264;2023-03-17T13:24:40;2;2;
78063;PMS5003;67429;51.596;-3.264;2023-03-17T13:26:55;5;5;
78063;PMS5003;67429;51.596;-3.264;2023-03-17T13:29:23;19;19;
78063;PMS5003;67429;51.596;-3.264;2023-03-17T13:31:46;4;4;
78063;PMS5003;67429;51.596;-3.264;2023-03-17T13:34:12;4;2;
78063;PMS5003;67429;51.596;-3.264;2023-03-17T13:36:39;3;3;
78063;PMS5003;67429;51.596;-3.264;2023-03-17T13:41:33;3;2;
78063;PMS5003;67429;51.596;-3.264;2023-03-17T13:43:56;4;4;
78063;PMS5003;67429;51.596;-3.264;2023-03-17T13:46:21;3;3;
78063;PMS5003;67429;51.596;-3.264;2023-03-17T13:48:45;7;6;
78063;PMS5003;67429;51.596;-3.264;2023-03-17T13:51:14;4;4;
78063;PMS5003;67429;51.596;-3.264;2023-03-17T13:53:36;4;4;
78063;PMS5003;67429;51.596;-3.264;2023-03-17T13:56:04;4;4;
78063;PMS5003;67429;51.596;-3.264;2023-03-17T13:58:31;4;4;
78063;PMS5003;67429;51.596;-3.264;2023-03-17T14:00:55;8;5;
78063;PMS5003;67429;51.596;-3.264;2023-03-17T14:03:19;6;5;
78063;PMS5003;67429;51.596;-3.264;2023-03-17T14:05:45;8;7;
78063;PMS5003;67429;51.596;-3.264;2023-03-17T14:08:12;8;6;
78063;PMS5003;67429;51.596;-3.264;2023-03-17T14:10:35;5;5;
78063;PMS5003;67429;51.596;-3.264;2023-03-17T14:13:02;6;6;
78063;PMS5003;67429;51.596;-3.264;2023-03-17T14:15:27;5;5;
78063;PMS5003;67429;51.596;-3.264;2023-03-17T14:17:52;6;5;
78063;PMS5003;67429;51.596;-3.264;2023-03-17T14:20:19;4;4;
78063;PMS5003;67429;51.596;-3.264;2023-03-17T14:22:44;5;5;
78063;PMS5003;67429;51.596;-3.264;2023-03-17T14:25:13;5;5;
78063;PMS5003;67429;51.596;-3.264;2023-03-17T14:27:33;8;6;
78063;PMS5003;67429;51.596;-3.264;2023-03-17T14:30:03;4;4;
78063;PMS5003;67429;51.596;-3.264;2023-03-17T14:32:24;4;4;
78063;PMS5003;67429;51.596;-3.264;2023-03-17T14:34:53;4;3;
78063;PMS5003;67429;51.596;-3.264;2023-03-17T14:37:15;4;3;
78063;PMS5003;67429;51.596;-3.264;2023-03-17T14:39:43;5;4;
78063;PMS5003;67429;51.596;-3.264;2023-03-17T14:42:07;5;4;
78063;PMS5003;67429;51.596;-3.264;2023-03-17T14:44:36;3;3;
78063;PMS5003;67429;51.596;-3.264;2023-03-17T14:46:59;5;4;
78063;PMS5003;67429;51.596;-3.264;2023-03-17T14:49:23;3;3;
78063;PMS5003;67429;51.596;-3.264;2023-03-17T14:51:49;6;5;
78063;PMS5003;67429;51.596;-3.264;2023-03-17T14:54:15;5;4;
78063;PMS5003;67429;51.596;-3.264;2023-03-17T14:56:41;4;4;
78063;PMS5003;67429;51.596;-3.264;2023-03-17T14:59:06;5;5;
78063;PMS5003;67429;51.596;-3.264;2023-03-17T15:01:32;6;6;
78063;PMS5003;67429;51.596;-3.264;2023-03-17T15:03:57;5;4;
78063;PMS5003;67429;51.596;-3.264;2023-03-17T15:06:23;6;5;
78063;PMS5003;67429;51.596;-3.264;2023-03-17T15:08:48;4;3;
78063;PMS5003;67429;51.596;-3.264;2023-03-17T15:11:15;4;4;
78063;PMS5003;67429;51.596;-3.264;2023-03-17T15:13:38;5;4;
78063;PMS5003;67429;51.596;-3.264;2023-03-17T15:16:05;7;7;
78063;PMS5003;67429;51.596;-3.264;2023-03-17T15:18:29;6;6;
78063;PMS5003;67429;51.596;-3.264;2023-03-17T15:20:54;5;4;
78063;PMS5003;67429;51.596;-3.264;2023-03-17T15:23:23;4;4;
78063;PMS5003;67429;51.596;-3.264;2023-03-17T15:25:46;8;7;
78063;PMS5003;67429;51.596;-3.264;2023-03-17T15:28:12;5;4;
78063;PMS5003;67429;51.596;-3.264;2023-03-17T15:30:38;4;4;
78063;PMS5003;67429;51.596;-3.264;2023-03-17T15:33:03;4;4;
78063;PMS5003;67429;51.596;-3.264;2023-03-17T15:35:28;3;3;
78063;PMS5003;67429;51.596;-3.264;2023-03-17T15:37:53;4;4;
78063;PMS5003;67429;51.596;-3.264;2023-03-17T15:40:19;5;5;
78063;PMS5003;67429;51.596;-3.264;2023-03-17T15:42:44;4;4;
78063;PMS5003;67429;51.596;-3.264;2023-03-17T15:45:15;5;5;
78063;PMS5003;67429;51.596;-3.264;2023-03-17T15:47:35;7;7;
78063;PMS5003;67429;51.596;-3.264;2023-03-17T15:50:05;4;4;
78063;PMS5003;67429;51.596;-3.264;2023-03-17T15:52:27;6;5;
78063;PMS5003;67429;51.596;-3.264;2023-03-17T15:54:53;5;5;
78063;PMS5003;67429;51.596;-3.264;2023-03-17T15:57:17;6;4;
78063;PMS5003;67429;51.596;-3.264;2023-03-17T15:59:43;5;4;
78063;PMS5003;67429;51.596;-3.264;2023-03-17T16:02:13;5;5;
78063;PMS5003;67429;51.596;-3.264;2023-03-17T16:04:34;6;6;
78063;PMS5003;67429;51.596;-3.264;2023-03-17T16:06:59;7;6;
78063;PMS5003;67429;51.596;-3.264;2023-03-17T16:09:24;5;5;
78063;PMS5003;67429;51.596;-3.264;2023-03-17T16:11:50;6;5;
78063;PMS5003;67429;51.596;-3.264;2023-03-17T16:14:16;4;4;
78063;PMS5003;67429;51.596;-3.264;2023-03-17T16:16:41;8;7;
78063;PMS5003;67429;51.596;-3.264;2023-03-17T16:19:07;3;3;
78063;PMS5003;67429;51.596;-3.264;2023-03-17T16:21:32;3;3;
78063;PMS5003;67429;51.596;-3.264;2023-03-17T16:23:57;7;6;
78063;PMS5003;67429;51.596;-3.264;2023-03-17T16:26:23;6;6;
78063;PMS5003;67429;51.596;-3.264;2023-03-17T16:28:48;5;5;
78063;PMS5003;67429;51.596;-3.264;2023-03-17T16:31:15;6;6;
78063;PMS5003;67429;51.596;-3.264;2023-03-17T16:33:39;6;6;
78063;PMS5003;67429;51.596;-3.264;2023-03-17T16:36:05;7;5;
78063;PMS5003;67429;51.596;-3.264;2023-03-17T16:38:31;7;6;
78063;PMS5003;67429;51.596;-3.264;2023-03-17T16:40:57;8;5;
78063;PMS5003;67429;51.596;-3.264;2023-03-17T16:43:22;6;6;
78063;PMS5003;67429;51.596;-3.264;2023-03-17T16:45:48;6;5;